Time;durP1;ratioP1;P1;durP2;ratioP2;P2;SDS_P1;SDS_P2;PMS_P1;PMS_P2;Temp;Humidity;BMP_temperature;BMP_pressure;BME280_temperature;BME280_humidity;BME280_pressure;Samples;Min_cycle;Max_cycle;Signal;HPM_P1;HPM_P2
2024/01/15 00:01:21;;;;;;;;;;;1.90;84.60;;;;;;4158019;28;19936;-80
2024/01/15 00:03:42;;;;;;;;;;;1.90;84.60;;;;;;4154367;28;19952;-81
2024/01/15 00:06:02;;;;;;;;;;;1.90;84.50;;;;;;4152408;28;19960;-81
2024/01/15 00:08:23;;;;;;;;;;;1.90;85.10;;;;;;4153186;28;19920;-80
2024/01/15 00:10:43;;;;;;;;;;;1.90;84.30;;;;;;4155451;28;20017;-81
2024/01/15 00:13:04;;;;;;;;;;;1.90;84.20;;;;;;4154012;28;19917;-82
2024/01/15 00:15:25;;;;;;;;;;;1.90;84.20;;;;;;4155747;28;20371;-83
2024/01/15 00:17:44;;;;;;;;;;;2.00;84.10;;;;;;4155977;28;19920;-81
2024/01/15 00:20:03;;;;;;;;;;;1.90;84.10;;;;;;4153938;28;19979;-82
2024/01/15 00:22:25;;;;;;;;;;;1.90;84.60;;;;;;4157600;28;19924;-82
2024/01/15 00:24:43;;;;;;;;;;;1.90;83.80;;;;;;4154363;28;19980;-82
2024/01/15 00:27:03;;;;;;;;;;;1.90;84.50;;;;;;4153941;28;19928;-80
2024/01/15 00:29:22;;;;;;;;;;;1.90;83.70;;;;;;4157312;28;19998;-83
2024/01/15 00:31:41;;;;;;;;;;;1.90;83.50;;;;;;4156392;28;20066;-81
2024/01/15 00:34:00;;;;;;;;;;;1.90;83.30;;;;;;4153059;28;20474;-82
2024/01/15 00:36:01;;;;;;;;;;;2.10;83.30;;;;;;4172045;28;19925;-82
2024/01/15 00:38:01;;;;;;;;;;;1.90;82.80;;;;;;4153377;28;19956;-81
2024/01/15 00:40:03;;;;;;;;;;;1.90;82.50;;;;;;4154314;28;19917;-81
2024/01/15 00:42:03;;;;;;;;;;;1.90;82.40;;;;;;4153510;28;19921;-81
2024/01/15 00:44:04;;;;;;;;;;;1.80;82.20;;;;;;4153494;28;20432;-82
2024/01/15 00:46:06;;;;;;;;;;;1.90;82.10;;;;;;4153751;28;20409;-82
2024/01/15 00:48:07;;;;;;;;;;;1.80;82.10;;;;;;4156149;28;19913;-81
2024/01/15 00:50:08;;;;;;;;;;;1.80;81.90;;;;;;4171497;28;19913;-81
2024/01/15 00:52:10;;;;;;;;;;;1.80;82.00;;;;;;4153826;28;19921;-81
2024/01/15 00:54:12;;;;;;;;;;;1.90;82.00;;;;;;4156587;28;19917;-81
2024/01/15 00:56:33;;;;;;;;;;;1.80;81.90;;;;;;4156012;28;20024;-82
2024/01/15 00:58:33;;;;;;;;;;;1.90;81.80;;;;;;4154910;28;21159;-81
2024/01/15 01:00:54;;;;;;;;;;;1.80;81.60;;;;;;4155564;28;19917;-81
2024/01/15 01:03:14;;;;;;;;;;;1.90;81.50;;;;;;4156264;28;19980;-81
2024/01/15 01:05:35;;;;;;;;;;;1.80;81.40;;;;;;4166722;28;20382;-82
2024/01/15 01:07:55;;;;;;;;;;;1.80;81.40;;;;;;4153391;28;19918;-80
2024/01/15 01:10:16;;;;;;;;;;;1.80;81.20;;;;;;4164424;28;19920;-81
2024/01/15 01:12:37;;;;;;;;;;;1.80;80.80;;;;;;4157591;28;19921;-82
2024/01/15 01:14:58;;;;;;;;;;;1.80;80.50;;;;;;4152782;28;19955;-80
2024/01/15 01:17:19;;;;;;;;;;;1.80;80.20;;;;;;4154706;28;19956;-81
2024/01/15 01:19:39;;;;;;;;;;;1.80;80.00;;;;;;4156450;28;19918;-81
2024/01/15 01:22:00;;;;;;;;;;;1.80;79.50;;;;;;4162646;28;19925;-82
2024/01/15 01:24:20;;;;;;;;;;;1.80;79.20;;;;;;4170791;28;19905;-80
2024/01/15 01:26:41;;;;;;;;;;;1.90;78.60;;;;;;4173854;28;19913;-80
2024/01/15 01:29:02;;;;;;;;;;;1.80;78.40;;;;;;4166777;28;19979;-81
2024/01/15 01:31:23;;;;;;;;;;;1.80;78.00;;;;;;4158733;28;20017;-82
2024/01/15 01:33:43;;;;;;;;;;;1.80;77.90;;;;;;4157991;28;19998;-81
2024/01/15 01:36:06;;;;;;;;;;;1.90;78.00;;;;;;4158037;28;19921;-81
2024/01/15 01:38:27;;;;;;;;;;;1.90;77.60;;;;;;4154895;28;19921;-80
2024/01/15 01:40:47;;;;;;;;;;;1.90;77.60;;;;;;4155868;28;19918;-81
2024/01/15 01:43:08;;;;;;;;;;;1.80;77.40;;;;;;4153543;28;20329;-80
2024/01/15 01:45:29;;;;;;;;;;;1.80;77.20;;;;;;4157931;28;19913;-80
2024/01/15 01:47:49;;;;;;;;;;;1.80;76.70;;;;;;4153272;28;19917;-81
2024/01/15 01:50:11;;;;;;;;;;;1.80;76.80;;;;;;4153895;28;19917;-82
2024/01/15 01:52:32;;;;;;;;;;;1.80;76.50;;;;;;4156134;28;20408;-82
2024/01/15 01:54:53;;;;;;;;;;;1.80;76.40;;;;;;4155242;28;19917;-80
2024/01/15 01:57:14;;;;;;;;;;;1.80;76.60;;;;;;4154303;28;19922;-81
2024/01/15 01:59:35;;;;;;;;;;;1.80;76.50;;;;;;4150810;28;19932;-81
2024/01/15 02:01:57;;;;;;;;;;;1.80;76.60;;;;;;4159496;28;19963;-83
2024/01/15 02:04:17;;;;;;;;;;;1.80;76.90;;;;;;4156305;28;19921;-83
2024/01/15 02:06:38;;;;;;;;;;;1.80;77.20;;;;;;4156041;28;19917;-81
2024/01/15 02:08:59;;;;;;;;;;;1.80;77.50;;;;;;4156124;28;19921;-81
2024/01/15 02:11:19;;;;;;;;;;;1.80;77.60;;;;;;4157297;28;19924;-81
2024/01/15 02:13:40;;;;;;;;;;;1.80;77.60;;;;;;4158396;28;19925;-82
2024/01/15 02:16:00;;;;;;;;;;;1.80;77.70;;;;;;4160360;28;19913;-83
2024/01/15 02:18:21;;;;;;;;;;;1.80;77.80;;;;;;4160524;28;19980;-80
2024/01/15 02:20:42;;;;;;;;;;;1.80;77.80;;;;;;4157719;28;19931;-81
2024/01/15 02:23:11;;;;;;;;;;;1.70;77.80;;;;;;4160727;28;20003;-81
2024/01/15 02:25:32;;;;;;;;;;;1.70;77.80;;;;;;4156456;28;19977;-80
2024/01/15 02:27:53;;;;;;;;;;;1.70;77.80;;;;;;4161384;28;19913;-81
2024/01/15 02:30:13;;;;;;;;;;;1.70;77.80;;;;;;4160328;28;19921;-82
2024/01/15 02:32:34;;;;;;;;;;;1.60;77.80;;;;;;4159342;28;19924;-80
2024/01/15 02:34:55;;;;;;;;;;;1.60;77.80;;;;;;4163095;28;19920;-81
2024/01/15 02:37:15;;;;;;;;;;;1.60;77.90;;;;;;4155469;28;20022;-81
2024/01/15 02:39:36;;;;;;;;;;;1.60;77.90;;;;;;4158239;28;20011;-81
2024/01/15 02:41:57;;;;;;;;;;;1.60;77.80;;;;;;4155478;28;20004;-81
2024/01/15 02:44:18;;;;;;;;;;;1.60;77.70;;;;;;4158534;28;19914;-81
2024/01/15 02:46:18;;;;;;;;;;;1.60;77.70;;;;;;4154378;28;19924;-81
2024/01/15 02:48:19;;;;;;;;;;;1.50;77.50;;;;;;4136772;28;19922;-81
2024/01/15 02:50:20;;;;;;;;;;;1.60;77.60;;;;;;4160404;28;19933;-79
2024/01/15 02:52:20;;;;;;;;;;;1.60;77.40;;;;;;4155715;28;20006;-81
2024/01/15 02:54:21;;;;;;;;;;;1.60;78.10;;;;;;4158246;28;19917;-81
2024/01/15 02:56:21;;;;;;;;;;;1.50;77.10;;;;;;4157749;28;19922;-80
2024/01/15 02:58:22;;;;;;;;;;;1.50;76.90;;;;;;4156170;28;19953;-80
2024/01/15 03:00:22;;;;;;;;;;;1.50;76.90;;;;;;4142035;28;20008;-80
2024/01/15 03:02:23;;;;;;;;;;;1.50;76.60;;;;;;4157542;28;19924;-81
2024/01/15 03:04:24;;;;;;;;;;;1.50;76.40;;;;;;4160770;28;19924;-81
2024/01/15 03:06:31;;;;;;;;;;;1.50;76.40;;;;;;4148288;28;19913;-81
2024/01/15 03:08:52;;;;;;;;;;;1.60;76.40;;;;;;4157116;28;20036;-82
2024/01/15 03:10:53;;;;;;;;;;;1.60;76.20;;;;;;4153844;28;19921;-82
2024/01/15 03:13:13;;;;;;;;;;;1.60;76.10;;;;;;4157815;28;19921;-82
2024/01/15 03:15:34;;;;;;;;;;;1.60;75.90;;;;;;4158297;28;19921;-81
2024/01/15 03:17:54;;;;;;;;;;;1.60;75.70;;;;;;4160735;28;20157;-82
2024/01/15 03:20:15;;;;;;;;;;;1.60;75.50;;;;;;4157949;28;19920;-79
2024/01/15 03:22:35;;;;;;;;;;;1.70;75.60;;;;;;4153771;28;19948;-81
2024/01/15 03:24:56;;;;;;;;;;;1.70;75.40;;;;;;4157854;28;19951;-81
2024/01/15 03:27:16;;;;;;;;;;;1.70;75.50;;;;;;4154404;28;19933;-80
2024/01/15 03:29:37;;;;;;;;;;;1.70;75.50;;;;;;4156840;28;19917;-81
2024/01/15 03:31:57;;;;;;;;;;;1.80;75.50;;;;;;4160167;28;19920;-81
2024/01/15 03:34:18;;;;;;;;;;;1.80;75.40;;;;;;4161055;28;20027;-80
2024/01/15 03:36:38;;;;;;;;;;;1.80;75.30;;;;;;4157783;28;19965;-82
2024/01/15 03:38:59;;;;;;;;;;;1.80;75.20;;;;;;4159232;28;19960;-81
2024/01/15 03:41:19;;;;;;;;;;;1.80;74.80;;;;;;4154078;28;19952;-82
2024/01/15 03:43:20;;;;;;;;;;;1.80;74.70;;;;;;4157768;28;19917;-81
2024/01/15 03:45:41;;;;;;;;;;;1.80;74.40;;;;;;4155870;28;19932;-81
2024/01/15 03:47:59;;;;;;;;;;;1.80;74.50;;;;;;4153084;28;19917;-81
2024/01/15 03:50:19;;;;;;;;;;;1.80;74.40;;;;;;4155929;28;19921;-82
2024/01/15 03:52:40;;;;;;;;;;;1.80;74.20;;;;;;4152755;28;19944;-81
2024/01/15 03:55:00;;;;;;;;;;;1.80;73.80;;;;;;4159298;28;19996;-81
2024/01/15 03:57:21;;;;;;;;;;;1.80;73.60;;;;;;4155181;28;19925;-81
2024/01/15 03:59:41;;;;;;;;;;;1.80;73.70;;;;;;4154886;28;20140;-82
2024/01/15 04:02:02;;;;;;;;;;;1.80;73.70;;;;;;4154825;28;19921;-80
2024/01/15 04:04:22;;;;;;;;;;;1.80;73.50;;;;;;4155778;28;20430;-81
2024/01/15 04:06:40;;;;;;;;;;;1.70;73.30;;;;;;4151700;28;20548;-81
2024/01/15 04:09:00;;;;;;;;;;;1.70;73.30;;;;;;4154419;28;19921;-81
2024/01/15 04:11:22;;;;;;;;;;;1.70;73.10;;;;;;4154955;28;19917;-82
2024/01/15 04:13:42;;;;;;;;;;;1.70;73.10;;;;;;4154940;28;19972;-81
2024/01/15 04:16:03;;;;;;;;;;;1.70;72.70;;;;;;4155658;28;19917;-83
2024/01/15 04:18:23;;;;;;;;;;;1.60;72.40;;;;;;4156144;28;19917;-82
2024/01/15 04:20:44;;;;;;;;;;;1.60;72.30;;;;;;4156425;28;20064;-82
2024/01/15 04:23:05;;;;;;;;;;;1.60;72.10;;;;;;4158261;28;19928;-81
2024/01/15 04:25:25;;;;;;;;;;;1.60;71.90;;;;;;4155204;28;19992;-82
2024/01/15 04:27:46;;;;;;;;;;;1.60;71.70;;;;;;4153527;28;19924;-80
2024/01/15 04:30:07;;;;;;;;;;;1.60;71.40;;;;;;4156340;28;19999;-81
2024/01/15 04:32:27;;;;;;;;;;;1.60;71.20;;;;;;4154979;28;20000;-82
2024/01/15 04:34:48;;;;;;;;;;;1.60;71.20;;;;;;4158033;28;20043;-82
2024/01/15 04:37:08;;;;;;;;;;;1.60;71.00;;;;;;4157166;28;19917;-83
2024/01/15 04:39:29;;;;;;;;;;;1.60;71.20;;;;;;4156284;28;19948;-82
2024/01/15 04:41:49;;;;;;;;;;;1.50;70.80;;;;;;4159681;28;19913;-83
2024/01/15 04:44:10;;;;;;;;;;;1.50;70.70;;;;;;4161314;28;19914;-82
2024/01/15 04:46:30;;;;;;;;;;;1.50;70.70;;;;;;4158364;28;19913;-82
2024/01/15 04:48:51;;;;;;;;;;;1.50;70.60;;;;;;4158149;28;19995;-82
2024/01/15 04:51:11;;;;;;;;;;;1.50;70.60;;;;;;4159157;28;20136;-82
2024/01/15 04:53:32;;;;;;;;;;;1.50;70.70;;;;;;4174433;28;19920;-83
2024/01/15 04:55:53;;;;;;;;;;;1.50;70.60;;;;;;4158988;28;20178;-82
2024/01/15 04:58:13;;;;;;;;;;;1.40;70.50;;;;;;4154041;28;19917;-82
2024/01/15 05:00:34;;;;;;;;;;;1.40;70.60;;;;;;4163573;28;19918;-81
2024/01/15 05:02:55;;;;;;;;;;;1.40;70.60;;;;;;4162402;28;19913;-83
2024/01/15 05:05:16;;;;;;;;;;;1.40;70.80;;;;;;4159765;28;19924;-83
2024/01/15 05:07:36;;;;;;;;;;;1.40;70.70;;;;;;4158277;28;19924;-82
2024/01/15 05:09:57;;;;;;;;;;;1.40;70.80;;;;;;4158966;28;19913;-82
2024/01/15 05:12:18;;;;;;;;;;;1.40;71.00;;;;;;4152534;28;19917;-82
2024/01/15 05:14:38;;;;;;;;;;;1.30;70.90;;;;;;4152206;28;19925;-81
2024/01/15 05:16:59;;;;;;;;;;;1.30;70.90;;;;;;4153408;28;19925;-81
2024/01/15 05:19:19;;;;;;;;;;;1.30;71.10;;;;;;4155147;28;20005;-83
2024/01/15 05:21:40;;;;;;;;;;;1.30;71.10;;;;;;4154959;28;19913;-83
2024/01/15 05:24:00;;;;;;;;;;;1.30;71.30;;;;;;4159255;28;19920;-82
2024/01/15 05:26:21;;;;;;;;;;;1.30;71.40;;;;;;4158377;28;19913;-82
2024/01/15 05:28:45;;;;;;;;;;;1.20;71.40;;;;;;4169270;28;19917;-82
2024/01/15 05:31:05;;;;;;;;;;;1.20;71.50;;;;;;4168777;28;19921;-82
2024/01/15 05:33:26;;;;;;;;;;;1.30;71.70;;;;;;4155484;28;19925;-81
2024/01/15 05:35:45;;;;;;;;;;;1.30;71.80;;;;;;4152689;28;19979;-81
2024/01/15 05:38:04;;;;;;;;;;;1.30;71.90;;;;;;4157587;28;20055;-82
2024/01/15 05:40:24;;;;;;;;;;;1.30;72.00;;;;;;4155710;28;19929;-81
2024/01/15 05:42:43;;;;;;;;;;;1.20;72.10;;;;;;4153410;28;20016;-81
2024/01/15 05:45:04;;;;;;;;;;;1.30;72.30;;;;;;4154249;28;19971;-81
2024/01/15 05:47:24;;;;;;;;;;;1.20;72.10;;;;;;4152334;28;20017;-81
2024/01/15 05:49:43;;;;;;;;;;;1.20;72.90;;;;;;4152868;28;19929;-80
2024/01/15 05:52:02;;;;;;;;;;;1.20;73.00;;;;;;4154904;28;20068;-82
2024/01/15 05:54:23;;;;;;;;;;;1.20;72.90;;;;;;4155869;28;20404;-81
2024/01/15 05:56:41;;;;;;;;;;;1.20;72.20;;;;;;4155939;28;20840;-82
2024/01/15 05:59:01;;;;;;;;;;;1.20;72.20;;;;;;4171173;28;19983;-82
2024/01/15 06:01:20;;;;;;;;;;;1.30;73.00;;;;;;4154150;28;19928;-82
2024/01/15 06:03:39;;;;;;;;;;;1.20;72.40;;;;;;4153266;28;19968;-81
2024/01/15 06:05:59;;;;;;;;;;;1.20;72.30;;;;;;4151376;28;19920;-81
2024/01/15 06:08:18;;;;;;;;;;;1.20;72.90;;;;;;4154266;28;20056;-83
2024/01/15 06:10:37;;;;;;;;;;;1.20;72.20;;;;;;4155428;28;19996;-82
2024/01/15 06:12:57;;;;;;;;;;;1.10;71.90;;;;;;4151222;28;19971;-82
2024/01/15 06:15:16;;;;;;;;;;;1.10;72.20;;;;;;4150323;28;20004;-82
2024/01/15 06:17:36;;;;;;;;;;;1.10;72.20;;;;;;4153044;28;19935;-82
2024/01/15 06:19:55;;;;;;;;;;;1.10;72.90;;;;;;4149654;28;20512;-83
2024/01/15 06:22:14;;;;;;;;;;;1.10;72.30;;;;;;4156320;28;20286;-83
2024/01/15 06:24:33;;;;;;;;;;;1.10;72.30;;;;;;4154846;28;20603;-82
2024/01/15 06:26:52;;;;;;;;;;;1.10;72.40;;;;;;4152771;28;19921;-82
2024/01/15 06:29:11;;;;;;;;;;;1.00;72.30;;;;;;4169835;28;19976;-82
2024/01/15 06:31:31;;;;;;;;;;;1.00;72.40;;;;;;4153359;28;19932;-82
2024/01/15 06:33:50;;;;;;;;;;;1.00;72.50;;;;;;4154271;28;19924;-83
2024/01/15 06:36:10;;;;;;;;;;;1.00;73.00;;;;;;4153019;28;19924;-82
2024/01/15 06:38:29;;;;;;;;;;;1.00;72.40;;;;;;4153101;28;20019;-82
2024/01/15 06:40:49;;;;;;;;;;;0.90;72.40;;;;;;4154440;28;19992;-83
2024/01/15 06:43:08;;;;;;;;;;;0.90;72.30;;;;;;4156761;28;19975;-83
2024/01/15 06:45:27;;;;;;;;;;;0.90;72.40;;;;;;4154850;28;19920;-82
2024/01/15 06:47:46;;;;;;;;;;;0.80;73.10;;;;;;4152813;28;19920;-82
2024/01/15 06:50:06;;;;;;;;;;;0.80;73.20;;;;;;4152520;28;19928;-82
2024/01/15 06:52:26;;;;;;;;;;;0.80;72.50;;;;;;4152653;28;19924;-82
2024/01/15 06:54:45;;;;;;;;;;;0.80;72.40;;;;;;4174038;28;19928;-82
2024/01/15 06:57:06;;;;;;;;;;;0.70;72.50;;;;;;4175317;28;19908;-81
2024/01/15 06:59:25;;;;;;;;;;;0.70;72.50;;;;;;4179594;28;19912;-84
2024/01/15 07:01:45;;;;;;;;;;;0.70;72.60;;;;;;4186089;28;20002;-81
2024/01/15 07:04:04;;;;;;;;;;;0.70;72.70;;;;;;4159790;28;20003;-82
2024/01/15 07:06:23;;;;;;;;;;;0.70;72.80;;;;;;4159373;28;19993;-83
2024/01/15 07:08:43;;;;;;;;;;;0.60;73.50;;;;;;4161629;28;20024;-82
2024/01/15 07:11:06;;;;;;;;;;;0.60;72.80;;;;;;4157545;28;19979;-83
2024/01/15 07:13:25;;;;;;;;;;;0.60;72.70;;;;;;4157876;28;20627;-83
2024/01/15 07:15:44;;;;;;;;;;;0.60;72.70;;;;;;4158678;28;20354;-82
2024/01/15 07:18:04;;;;;;;;;;;0.60;72.80;;;;;;4156544;28;20362;-82
2024/01/15 07:20:23;;;;;;;;;;;0.50;72.80;;;;;;4157801;28;19916;-81
2024/01/15 07:22:42;;;;;;;;;;;0.50;72.80;;;;;;4154573;28;19924;-82
2024/01/15 07:25:01;;;;;;;;;;;0.50;72.80;;;;;;4156192;28;20346;-82
2024/01/15 07:27:21;;;;;;;;;;;0.50;72.90;;;;;;4153942;28;20071;-82
2024/01/15 07:29:40;;;;;;;;;;;0.50;72.80;;;;;;4156578;28;19920;-82
2024/01/15 07:31:59;;;;;;;;;;;0.40;72.70;;;;;;4156594;28;19916;-81
2024/01/15 07:34:18;;;;;;;;;;;0.50;72.80;;;;;;4156923;28;20012;-82
2024/01/15 07:36:37;;;;;;;;;;;0.40;72.60;;;;;;4159107;28;19923;-83
2024/01/15 07:38:57;;;;;;;;;;;0.40;73.00;;;;;;4156555;28;19994;-81
2024/01/15 07:41:16;;;;;;;;;;;0.40;72.50;;;;;;4157559;28;19955;-82
2024/01/15 07:43:35;;;;;;;;;;;0.40;72.60;;;;;;4155759;28;19975;-82
2024/01/15 07:45:54;;;;;;;;;;;0.40;72.50;;;;;;4168084;28;19920;-83
2024/01/15 07:48:14;;;;;;;;;;;0.40;72.40;;;;;;4159522;28;19955;-82
2024/01/15 07:50:33;;;;;;;;;;;0.40;72.50;;;;;;4158694;28;19923;-82
2024/01/15 07:52:53;;;;;;;;;;;0.30;73.20;;;;;;4156173;28;19967;-82
2024/01/15 07:55:12;;;;;;;;;;;0.30;72.30;;;;;;4156709;28;20054;-82
2024/01/15 07:57:31;;;;;;;;;;;0.30;72.90;;;;;;4156552;28;20316;-83
2024/01/15 07:59:51;;;;;;;;;;;0.30;72.30;;;;;;4170177;28;19990;-83
2024/01/15 08:02:11;;;;;;;;;;;0.30;72.30;;;;;;4159616;28;19919;-83
2024/01/15 08:04:30;;;;;;;;;;;0.30;72.10;;;;;;4157403;28;19925;-82
2024/01/15 08:06:49;;;;;;;;;;;0.30;72.30;;;;;;4156250;28;19927;-85
2024/01/15 08:09:08;;;;;;;;;;;0.30;72.20;;;;;;4153063;28;19916;-84
2024/01/15 08:11:28;;;;;;;;;;;0.30;72.20;;;;;;4154308;28;20003;-85
2024/01/15 08:13:47;;;;;;;;;;;0.30;72.30;;;;;;4157058;28;19955;-82
2024/01/15 08:16:06;;;;;;;;;;;0.40;72.10;;;;;;4155609;28;20262;-82
2024/01/15 08:18:25;;;;;;;;;;;0.30;72.10;;;;;;4155113;28;19923;-82
2024/01/15 08:20:44;;;;;;;;;;;0.30;71.90;;;;;;4168207;28;19970;-83
2024/01/15 08:23:04;;;;;;;;;;;0.30;72.80;;;;;;4153963;28;19923;-82
2024/01/15 08:25:23;;;;;;;;;;;0.30;71.80;;;;;;4154389;28;19919;-81
2024/01/15 08:27:42;;;;;;;;;;;0.30;71.10;;;;;;4156300;28;19930;-82
2024/01/15 08:30:04;;;;;;;;;;;0.30;71.50;;;;;;4156002;28;20386;-82
2024/01/15 08:32:23;;;;;;;;;;;0.30;71.20;;;;;;4154356;28;20267;-82
2024/01/15 08:34:43;;;;;;;;;;;0.30;71.40;;;;;;4156623;28;19923;-82
2024/01/15 08:37:02;;;;;;;;;;;0.30;71.50;;;;;;4154280;28;20007;-82
2024/01/15 08:39:21;;;;;;;;;;;0.30;71.50;;;;;;4151797;28;19963;-83
2024/01/15 08:41:41;;;;;;;;;;;0.30;70.70;;;;;;4165950;28;19923;-82
2024/01/15 08:44:00;;;;;;;;;;;0.40;71.20;;;;;;4158676;28;19917;-82
2024/01/15 08:46:19;;;;;;;;;;;0.30;71.20;;;;;;4155241;28;19916;-84
2024/01/15 08:48:39;;;;;;;;;;;0.40;70.80;;;;;;4158147;28;19916;-81
2024/01/15 08:50:58;;;;;;;;;;;0.40;72.00;;;;;;4160589;28;19928;-82
2024/01/15 08:53:17;;;;;;;;;;;0.40;71.40;;;;;;4171223;28;19920;-84
2024/01/15 08:55:37;;;;;;;;;;;0.40;72.00;;;;;;4157421;28;19931;-83
2024/01/15 08:57:56;;;;;;;;;;;0.40;71.40;;;;;;4155930;28;19916;-83
2024/01/15 09:00:15;;;;;;;;;;;0.40;71.10;;;;;;4153275;28;20370;-82
2024/01/15 09:02:35;;;;;;;;;;;0.40;71.20;;;;;;4157307;28;19920;-82
2024/01/15 09:04:54;;;;;;;;;;;0.40;70.90;;;;;;4155446;28;20004;-82
2024/01/15 09:07:14;;;;;;;;;;;0.40;70.30;;;;;;4154746;28;19928;-83
2024/01/15 09:09:34;;;;;;;;;;;0.50;70.70;;;;;;4166928;28;19974;-82
2024/01/15 09:11:53;;;;;;;;;;;0.50;70.60;;;;;;4155213;28;19920;-83
2024/01/15 09:14:13;;;;;;;;;;;0.50;70.50;;;;;;4155414;28;19923;-83
2024/01/15 09:16:32;;;;;;;;;;;0.50;70.60;;;;;;4157820;28;19912;-82
2024/01/15 09:18:51;;;;;;;;;;;0.50;70.30;;;;;;4152191;28;20330;-82
2024/01/15 09:21:10;;;;;;;;;;;0.50;70.70;;;;;;4151125;28;20318;-83
2024/01/15 09:23:30;;;;;;;;;;;0.70;70.00;;;;;;4152804;28;19917;-82
2024/01/15 09:25:49;;;;;;;;;;;0.50;69.90;;;;;;4153674;28;19921;-82
2024/01/15 09:28:08;;;;;;;;;;;0.50;69.60;;;;;;4154600;28;20477;-82
2024/01/15 09:30:28;;;;;;;;;;;0.50;69.30;;;;;;4153602;28;20420;-82
2024/01/15 09:32:47;;;;;;;;;;;0.50;69.20;;;;;;4154356;28;20028;-82
2024/01/15 09:35:06;;;;;;;;;;;0.60;68.90;;;;;;4154137;28;19963;-82
2024/01/15 09:37:25;;;;;;;;;;;0.60;69.10;;;;;;4150695;28;19940;-82
2024/01/15 09:39:45;;;;;;;;;;;0.50;69.90;;;;;;4152941;28;19979;-83
2024/01/15 09:42:04;;;;;;;;;;;0.60;69.30;;;;;;4153634;28;20363;-83
2024/01/15 09:44:24;;;;;;;;;;;0.50;68.70;;;;;;4152036;28;20375;-83
2024/01/15 09:46:44;;;;;;;;;;;0.60;69.20;;;;;;4152903;28;19916;-83
2024/01/15 09:49:04;;;;;;;;;;;0.60;69.30;;;;;;4149869;28;19927;-82
2024/01/15 09:51:24;;;;;;;;;;;0.60;70.00;;;;;;4151140;28;19936;-82
2024/01/15 09:53:44;;;;;;;;;;;0.60;69.90;;;;;;4152647;28;19920;-82
2024/01/15 09:56:03;;;;;;;;;;;0.60;69.80;;;;;;4151787;28;19924;-82
2024/01/15 09:58:22;;;;;;;;;;;0.60;69.60;;;;;;4153847;28;19995;-82
2024/01/15 10:00:43;;;;;;;;;;;0.60;68.80;;;;;;4156471;28;21111;-83
2024/01/15 10:03:03;;;;;;;;;;;0.70;69.10;;;;;;4149963;28;20386;-84
2024/01/15 10:05:22;;;;;;;;;;;0.60;69.10;;;;;;4155275;28;19983;-82
2024/01/15 10:07:42;;;;;;;;;;;0.60;69.00;;;;;;4150369;28;19979;-82
2024/01/15 10:10:01;;;;;;;;;;;0.60;69.00;;;;;;4150662;28;19924;-82
2024/01/15 10:12:24;;;;;;;;;;;0.80;69.20;;;;;;4155662;28;19979;-82
2024/01/15 10:14:43;;;;;;;;;;;0.60;69.10;;;;;;4155603;28;19932;-81
2024/01/15 10:17:11;;;;;;;;;;;0.70;69.20;;;;;;4150585;28;19916;-82
2024/01/15 10:19:30;;;;;;;;;;;0.70;69.30;;;;;;4153259;28;19971;-83
2024/01/15 10:21:50;;;;;;;;;;;0.70;70.20;;;;;;4153690;28;19923;-82
2024/01/15 10:24:09;;;;;;;;;;;0.70;69.10;;;;;;4152845;28;19967;-84
2024/01/15 10:26:29;;;;;;;;;;;0.70;69.50;;;;;;4151301;28;20016;-83
2024/01/15 10:28:51;;;;;;;;;;;0.70;69.40;;;;;;4152299;28;20702;-82
2024/01/15 10:31:10;;;;;;;;;;;0.70;68.60;;;;;;4155688;28;20470;-82
2024/01/15 10:33:29;;;;;;;;;;;0.70;68.80;;;;;;4157902;28;20450;-83
2024/01/15 10:35:48;;;;;;;;;;;0.70;69.00;;;;;;4160151;28;19920;-82
2024/01/15 10:38:07;;;;;;;;;;;0.70;68.90;;;;;;4157792;28;19919;-83
2024/01/15 10:40:27;;;;;;;;;;;0.80;69.10;;;;;;4155791;28;19964;-83
2024/01/15 10:42:47;;;;;;;;;;;0.80;69.20;;;;;;4157560;28;19916;-82
2024/01/15 10:45:08;;;;;;;;;;;0.80;69.30;;;;;;4155573;28;20437;-82
2024/01/15 10:47:28;;;;;;;;;;;0.80;68.90;;;;;;4155258;28;20388;-83
2024/01/15 10:49:47;;;;;;;;;;;0.80;69.00;;;;;;4156036;28;19920;-83
2024/01/15 10:52:06;;;;;;;;;;;0.80;68.60;;;;;;4155747;28;20611;-82
2024/01/15 10:54:26;;;;;;;;;;;0.80;68.80;;;;;;4169678;28;19943;-83
2024/01/15 10:56:46;;;;;;;;;;;0.80;68.80;;;;;;4176514;28;19977;-83
2024/01/15 10:59:07;;;;;;;;;;;0.80;68.70;;;;;;4159519;28;19929;-83
2024/01/15 11:01:28;;;;;;;;;;;0.80;68.20;;;;;;4156189;28;20623;-83
2024/01/15 11:03:47;;;;;;;;;;;0.80;68.40;;;;;;4158663;28;19928;-83
2024/01/15 11:06:17;;;;;;;;;;;0.80;68.40;;;;;;4164165;28;19980;-83
2024/01/15 11:08:36;;;;;;;;;;;0.80;68.20;;;;;;4155777;28;19987;-82
2024/01/15 11:10:57;;;;;;;;;;;0.80;68.90;;;;;;4154711;28;20186;-83
2024/01/15 11:13:22;;;;;;;;;;;0.90;68.20;;;;;;4157491;28;20416;-84
2024/01/15 11:15:54;;;;;;;;;;;0.80;68.00;;;;;;4161242;28;19913;-83
2024/01/15 11:18:13;;;;;;;;;;;0.80;67.60;;;;;;4158356;28;19916;-83
2024/01/15 11:20:32;;;;;;;;;;;0.80;67.70;;;;;;4154693;28;19936;-82
2024/01/15 11:22:57;;;;;;;;;;;0.80;67.40;;;;;;4160878;28;19943;-81
2024/01/15 11:25:18;;;;;;;;;;;0.80;67.40;;;;;;4159594;28;19943;-81
2024/01/15 11:27:44;;;;;;;;;;;0.80;67.40;;;;;;4168083;28;20048;-82
2024/01/15 11:30:04;;;;;;;;;;;0.80;67.60;;;;;;4149884;28;19991;-82
2024/01/15 11:32:32;;;;;;;;;;;0.80;68.50;;;;;;4159208;28;19979;-82
2024/01/15 11:35:01;;;;;;;;;;;0.90;67.40;;;;;;4159612;28;19921;-83
2024/01/15 11:37:21;;;;;;;;;;;0.90;67.10;;;;;;4160835;28;19941;-82
2024/01/15 11:39:42;;;;;;;;;;;0.90;66.80;;;;;;4153647;28;20045;-82
2024/01/15 11:42:02;;;;;;;;;;;0.90;66.70;;;;;;4155737;28;19921;-82
2024/01/15 11:44:21;;;;;;;;;;;0.90;66.80;;;;;;4155877;28;19925;-82
2024/01/15 11:46:46;;;;;;;;;;;0.90;67.10;;;;;;4156381;28;20369;-82
2024/01/15 11:49:06;;;;;;;;;;;0.90;67.30;;;;;;4160171;28;19924;-82
2024/01/15 11:51:26;;;;;;;;;;;0.90;67.40;;;;;;4160149;28;20012;-81
2024/01/15 11:53:47;;;;;;;;;;;0.90;67.90;;;;;;4158827;28;19924;-81
2024/01/15 11:56:11;;;;;;;;;;;0.90;67.00;;;;;;4159965;28;20009;-82
2024/01/15 11:58:30;;;;;;;;;;;1.00;67.40;;;;;;4158908;28;19916;-81
2024/01/15 12:00:51;;;;;;;;;;;1.00;67.40;;;;;;4155730;28;20294;-81
2024/01/15 12:03:11;;;;;;;;;;;1.00;68.20;;;;;;4155067;28;19937;-81
2024/01/15 12:05:30;;;;;;;;;;;1.00;67.40;;;;;;4155497;28;20436;-81
2024/01/15 12:07:49;;;;;;;;;;;1.00;67.30;;;;;;4160917;28;19920;-81
2024/01/15 12:10:12;;;;;;;;;;;1.00;67.30;;;;;;4162807;28;19920;-80
2024/01/15 12:12:52;;;;;;;;;;;1.00;68.00;;;;;;4160342;28;20420;-81
2024/01/15 12:15:11;;;;;;;;;;;1.00;68.00;;;;;;4176898;28;20298;-81
2024/01/15 12:17:30;;;;;;;;;;;1.00;67.20;;;;;;4160805;28;19928;-81
2024/01/15 12:19:49;;;;;;;;;;;1.00;67.30;;;;;;4175239;28;19960;-80
2024/01/15 12:22:09;;;;;;;;;;;1.00;68.00;;;;;;4178177;28;19923;-81
2024/01/15 12:24:28;;;;;;;;;;;1.00;67.10;;;;;;4176677;28;19956;-81
2024/01/15 12:26:48;;;;;;;;;;;1.00;66.90;;;;;;4159666;28;19978;-82
2024/01/15 12:29:07;;;;;;;;;;;1.00;66.40;;;;;;4159063;28;19923;-81
2024/01/15 12:31:26;;;;;;;;;;;1.00;66.30;;;;;;4162339;28;19985;-81
2024/01/15 12:33:45;;;;;;;;;;;1.00;66.90;;;;;;4159493;28;20728;-81
2024/01/15 12:36:05;;;;;;;;;;;1.00;66.70;;;;;;4160471;28;19920;-81
2024/01/15 12:38:24;;;;;;;;;;;1.00;66.90;;;;;;4159361;28;20456;-81
2024/01/15 12:40:46;;;;;;;;;;;0.90;66.70;;;;;;4159968;28;20012;-81
2024/01/15 12:43:06;;;;;;;;;;;0.90;66.60;;;;;;4157008;28;19920;-81
2024/01/15 12:45:26;;;;;;;;;;;0.90;66.70;;;;;;4156554;28;19924;-80
2024/01/15 12:47:46;;;;;;;;;;;0.90;66.70;;;;;;4152928;28;20453;-81
2024/01/15 12:50:09;;;;;;;;;;;0.90;66.60;;;;;;4159495;28;19928;-81
2024/01/15 12:52:29;;;;;;;;;;;0.90;66.90;;;;;;4154777;28;19928;-81
2024/01/15 12:54:51;;;;;;;;;;;0.90;67.00;;;;;;4154953;28;20007;-81
2024/01/15 12:57:10;;;;;;;;;;;0.90;67.00;;;;;;4156785;28;20541;-81
2024/01/15 12:59:30;;;;;;;;;;;0.90;67.00;;;;;;4159373;28;19927;-81
2024/01/15 13:01:49;;;;;;;;;;;0.90;67.20;;;;;;4163894;28;19923;-80
2024/01/15 13:04:08;;;;;;;;;;;0.90;67.10;;;;;;4165963;28;19924;-80
2024/01/15 13:06:28;;;;;;;;;;;0.90;67.20;;;;;;4166700;28;19920;-82
2024/01/15 13:08:47;;;;;;;;;;;0.90;67.30;;;;;;4161770;28;20460;-82
2024/01/15 13:11:06;;;;;;;;;;;0.80;68.10;;;;;;4169907;28;20433;-80
2024/01/15 13:13:26;;;;;;;;;;;0.80;67.30;;;;;;4158081;28;19975;-81
2024/01/15 13:15:46;;;;;;;;;;;0.70;67.40;;;;;;4155990;28;20058;-83
2024/01/15 13:18:06;;;;;;;;;;;0.80;67.10;;;;;;4158674;28;19955;-82
2024/01/15 13:20:25;;;;;;;;;;;0.90;67.50;;;;;;4158932;28;19920;-82
2024/01/15 13:22:45;;;;;;;;;;;0.90;67.70;;;;;;4159941;28;19924;-82
2024/01/15 13:25:07;;;;;;;;;;;0.90;67.80;;;;;;4157064;28;19928;-81
2024/01/15 13:27:26;;;;;;;;;;;0.90;67.80;;;;;;4155528;28;19925;-82
2024/01/15 13:29:45;;;;;;;;;;;0.90;67.90;;;;;;4160181;28;19924;-82
2024/01/15 13:32:05;;;;;;;;;;;0.90;67.80;;;;;;4158255;28;19925;-82
2024/01/15 13:34:24;;;;;;;;;;;0.90;67.80;;;;;;4159443;28;19966;-83
2024/01/15 13:36:43;;;;;;;;;;;0.90;67.70;;;;;;4161363;28;19923;-82
2024/01/15 13:39:03;;;;;;;;;;;0.90;67.30;;;;;;4162805;28;19923;-83
2024/01/15 13:41:27;;;;;;;;;;;0.90;67.60;;;;;;4160979;28;19928;-82